Time;durP1;ratioP1;P1;durP2;ratioP2;P2;SDS_P1;SDS_P2;PMS_P1;PMS_P2;Temp;Humidity;BMP_temperature;BMP_pressure;BME280_temperature;BME280_humidity;BME280_pressure;Samples;Min_cycle;Max_cycle;Signal;HPM_P1;HPM_P2
2023/11/02 00:00:36;;;;;;;0.70;0.20;;;;;;;21.63;37.76;98537.75;4517386;28;20128;-63
2023/11/02 00:02:46;;;;;;;0.47;0.35;;;;;;;21.62;37.69;98524.66;4499504;28;20045;-63
2023/11/02 00:04:57;;;;;;;0.20;0.20;;;;;;;21.58;37.74;98515.25;4519176;28;20026;-63
2023/11/02 00:07:09;;;;;;;0.50;0.30;;;;;;;21.60;37.66;98498.41;4516439;28;20095;-63
2023/11/02 00:09:25;;;;;;;0.30;0.20;;;;;;;21.62;37.58;98504.56;4519658;28;21456;-63
2023/11/02 00:11:53;;;;;;;1.17;0.40;;;;;;;21.63;37.33;98499.63;4518530;28;20084;-63
2023/11/02 00:14:03;;;;;;;0.30;0.25;;;;;;;21.62;37.87;98498.81;4487789;28;20625;-63
2023/11/02 00:16:14;;;;;;;0.25;0.20;;;;;;;21.62;37.62;98498.81;4517021;28;20099;-63
2023/11/02 00:18:26;;;;;;;0.22;0.22;;;;;;;21.62;37.07;98498.81;4519807;28;26256;-63
2023/11/02 00:20:37;;;;;;;0.47;0.20;;;;;;;21.59;37.67;98488.19;4518653;28;20088;-63
2023/11/02 00:22:48;;;;;;;0.45;0.30;;;;;;;21.62;37.77;98493.09;4518590;28;20168;-63
2023/11/02 00:25:05;;;;;;;0.35;0.20;;;;;;;21.62;37.35;98484.47;4519496;28;20140;-63
2023/11/02 00:27:16;;;;;;;0.35;0.20;;;;;;;21.61;37.59;98485.69;4516273;28;20077;-63
2023/11/02 00:29:26;;;;;;;0.43;0.20;;;;;;;21.63;37.59;98479.53;4493652;28;20089;-63
2023/11/02 00:31:37;;;;;;;0.38;0.20;;;;;;;21.62;37.59;98478.72;4519512;28;20060;-63
2023/11/02 00:33:48;;;;;;;0.60;0.20;;;;;;;21.61;37.54;98471.34;4494168;28;20447;-63
2023/11/02 00:35:59;;;;;;;0.50;0.30;;;;;;;21.62;37.51;98470.13;4505553;28;20090;-63
2023/11/02 00:38:09;;;;;;;0.70;0.40;;;;;;;21.62;37.48;98461.50;4517820;28;20040;-63
2023/11/02 00:40:20;;;;;;;0.50;0.30;;;;;;;21.60;37.41;98449.63;4518924;28;20026;-63
2023/11/02 00:42:31;;;;;;;0.47;0.32;;;;;;;21.62;37.22;98457.81;4518339;28;20056;-63
2023/11/02 00:44:45;;;;;;;0.70;0.30;;;;;;;21.61;37.11;98451.25;4518653;28;20021;-63
2023/11/02 00:46:55;;;;;;;0.50;0.35;;;;;;;21.62;37.33;98444.28;4500764;28;20791;-63
2023/11/02 00:49:19;;;;;;;0.80;0.30;;;;;;;21.61;37.38;98442.63;4502605;28;20759;-63
2023/11/02 00:51:31;;;;;;;0.70;0.40;;;;;;;21.61;37.29;98447.56;4517015;28;20669;-63
2023/11/02 00:53:44;;;;;;;0.32;0.20;;;;;;;21.61;37.03;98439.75;4517237;28;20026;-63
2023/11/02 00:55:55;;;;;;;0.52;0.28;;;;;;;21.61;37.51;98434.00;4519551;28;20033;-62
2023/11/02 00:58:11;;;;;;;0.30;0.28;;;;;;;21.62;36.84;98437.72;4517865;28;20014;-63
2023/11/02 01:00:52;;;;;;;0.47;0.30;;;;;;;21.61;37.22;98434.00;4515429;28;20037;-63
2023/11/02 01:03:03;;;;;;;0.50;0.25;;;;;;;21.61;37.19;98422.53;4517537;28;20065;-63
2023/11/02 01:05:22;;;;;;;0.30;0.30;;;;;;;21.61;37.10;98422.53;4515517;28;20092;-63
2023/11/02 01:07:33;;;;;;;1.02;0.40;;;;;;;21.59;37.12;98407.81;4518860;28;20040;-63
2023/11/02 01:09:47;;;;;;;0.35;0.20;;;;;;;21.61;37.20;98419.66;4499459;28;20038;-63
2023/11/02 01:11:57;;;;;;;0.35;0.30;;;;;;;21.61;36.90;98416.78;4496035;28;20033;-63
2023/11/02 01:14:37;;;;;;;0.47;0.17;;;;;;;21.61;37.27;98408.19;4499580;28;20034;-63
2023/11/02 01:16:47;;;;;;;0.30;0.20;;;;;;;21.55;37.26;98398.41;4502285;28;20067;-63
2023/11/02 01:18:58;;;;;;;0.43;0.20;;;;;;;21.61;37.03;98413.91;4504900;28;20033;-63
2023/11/02 01:21:09;;;;;;;1.05;0.25;;;;;;;21.61;36.75;98411.03;4516598;28;20033;-63
2023/11/02 01:23:19;;;;;;;0.25;0.20;;;;;;;21.61;37.13;98399.56;4498469;28;20077;-63
2023/11/02 01:25:30;;;;;;;0.30;0.30;;;;;;;21.61;37.00;98390.94;4499709;28;20029;-63
2023/11/02 01:27:41;;;;;;;0.22;0.22;;;;;;;21.61;37.12;98379.47;4506037;28;21120;-63
2023/11/02 01:29:51;;;;;;;0.20;0.20;;;;;;;21.61;36.83;98375.81;4519295;28;20071;-63
2023/11/02 01:32:03;;;;;;;0.30;0.20;;;;;;;21.61;36.78;98370.84;4500813;28;20124;-63
2023/11/02 01:34:19;;;;;;;0.20;0.20;;;;;;;21.60;36.84;98371.28;4498795;28;20023;-63
2023/11/02 01:36:36;;;;;;;0.50;0.30;;;;;;;21.61;36.98;98361.44;4500652;28;20924;-63
2023/11/02 01:38:46;;;;;;;0.47;0.40;;;;;;;21.60;37.09;98354.06;4504635;28;20080;-63
2023/11/02 01:41:15;;;;;;;0.52;0.25;;;;;;;21.60;36.90;98342.56;4516734;28;20045;-63
2023/11/02 01:43:43;;;;;;;0.40;0.30;;;;;;;21.60;37.13;98345.44;4498738;28;20932;-63
2023/11/02 01:45:58;;;;;;;0.40;0.25;;;;;;;21.60;37.68;98343.41;4503638;28;20541;-62
2023/11/02 01:48:18;;;;;;;0.20;0.20;;;;;;;21.60;37.27;98331.91;4515826;28;20026;-63
2023/11/02 01:50:33;;;;;;;0.40;0.25;;;;;;;21.60;37.57;98326.19;4498520;28;20042;-63
2023/11/02 01:53:28;;;;;;;0.63;0.38;;;;;;;21.61;37.29;98324.13;4498149;28;20022;-63
2023/11/02 01:55:56;;;;;;;0.55;0.30;;;;;;;21.60;37.76;98317.56;4466698;28;20049;-63
2023/11/02 01:58:22;;;;;;;0.70;0.30;;;;;;;21.56;37.30;98305.31;4498352;28;20057;-63
2023/11/02 02:00:44;;;;;;;0.20;0.20;;;;;;;21.60;37.85;98299.50;4498885;28;20833;-63
2023/11/02 02:03:08;;;;;;;0.57;0.20;;;;;;;21.61;37.68;98289.69;4496472;28;20026;-63
2023/11/02 02:05:30;;;;;;;0.20;0.20;;;;;;;21.60;37.63;98300.34;4496575;28;20845;-63
2023/11/02 02:08:09;;;;;;;0.32;0.20;;;;;;;21.60;37.39;98285.16;4499553;28;20093;-63
2023/11/02 02:10:26;;;;;;;0.20;0.20;;;;;;;21.60;37.39;98286.00;4517961;28;20068;-63
2023/11/02 02:12:46;;;;;;;0.30;0.30;;;;;;;21.59;37.30;98272.88;4498238;28;20562;-63
2023/11/02 02:15:10;;;;;;;0.68;0.25;;;;;;;21.60;37.51;98259.31;4498683;28;20673;-63
2023/11/02 02:17:37;;;;;;;0.82;0.20;;;;;;;21.58;37.51;98245.41;4496152;28;20789;-63
2023/11/02 02:20:08;;;;;;;0.90;0.30;;;;;;;21.60;37.06;98245.78;4498798;28;20156;-63
2023/11/02 02:22:37;;;;;;;0.43;0.22;;;;;;;21.57;37.00;98238.06;4498049;28;20614;-63
2023/11/02 02:24:57;;;;;;;0.47;0.30;;;;;;;21.59;37.07;98244.19;4498408;28;20049;-63
2023/11/02 02:27:29;;;;;;;0.80;0.30;;;;;;;21.60;36.67;98231.44;4501894;28;20038;-63
2023/11/02 02:29:39;;;;;;;0.28;0.28;;;;;;;21.60;37.05;98225.69;4500875;28;20038;-63
2023/11/02 02:32:22;;;;;;;0.20;0.20;;;;;;;21.60;36.76;98222.00;4520115;28;20052;-63
2023/11/02 02:34:49;;;;;;;0.63;0.20;;;;;;;21.60;37.13;98225.69;4477935;28;20109;-63
2023/11/02 02:37:11;;;;;;;0.30;0.20;;;;;;;21.58;36.84;98210.97;4519146;28;20693;-63
2023/11/02 02:39:23;;;;;;;0.68;0.22;;;;;;;21.60;37.32;98196.19;4505262;28;20765;-63
2023/11/02 02:41:39;;;;;;;0.50;0.22;;;;;;;21.59;37.14;98189.63;4518994;28;20581;-63
2023/11/02 02:43:52;;;;;;;0.32;0.20;;;;;;;21.60;37.11;98184.69;4500760;28;21128;-63
2023/11/02 02:46:04;;;;;;;0.43;0.43;;;;;;;21.60;37.04;98173.22;4522155;28;20126;-63
2023/11/02 02:48:15;;;;;;;0.40;0.30;;;;;;;21.60;36.97;98178.94;4519365;28;20028;-63
2023/11/02 02:50:30;;;;;;;0.35;0.30;;;;;;;21.60;37.16;98170.34;4503148;28;20068;-63
2023/11/02 02:52:41;;;;;;;0.40;0.30;;;;;;;21.56;36.81;98156.06;4521644;28;20492;-63
2023/11/02 02:54:53;;;;;;;0.50;0.40;;;;;;;21.57;36.91;98151.13;4485912;28;21308;-63
2023/11/02 02:57:09;;;;;;;0.75;0.30;;;;;;;21.60;36.98;98144.50;4506693;28;20041;-63
2023/11/02 02:59:22;;;;;;;0.20;0.20;;;;;;;21.54;36.99;98123.28;4501815;28;20608;-63
2023/11/02 03:01:42;;;;;;;0.40;0.30;;;;;;;21.60;36.96;98133.03;4501017;28;20045;-63
2023/11/02 03:03:54;;;;;;;0.52;0.38;;;;;;;21.58;36.85;98127.72;4501641;28;20186;-63
2023/11/02 03:06:07;;;;;;;0.20;0.20;;;;;;;21.56;37.06;98113.00;4517655;28;20041;-63
2023/11/02 03:08:19;;;;;;;0.50;0.20;;;;;;;21.59;37.39;98103.53;4520370;28;20098;-63
2023/11/02 03:10:33;;;;;;;0.32;0.30;;;;;;;21.59;37.23;98083.44;4477150;28;20126;-63
2023/11/02 03:12:47;;;;;;;0.43;0.30;;;;;;;21.59;37.44;98080.56;4500307;28;20022;-63
2023/11/02 03:15:01;;;;;;;0.70;0.30;;;;;;;21.54;37.38;98063.00;4501335;28;20085;-63
2023/11/02 03:17:20;;;;;;;0.40;0.30;;;;;;;21.59;37.43;98060.47;4520850;28;20042;-63
2023/11/02 03:19:46;;;;;;;0.20;0.20;;;;;;;21.58;37.30;98058.03;4518827;28;20044;-63
2023/11/02 03:21:57;;;;;;;0.57;0.32;;;;;;;21.59;37.31;98049.00;4520824;28;20042;-63
2023/11/02 03:24:19;;;;;;;0.20;0.20;;;;;;;21.59;37.38;98028.91;4506018;28;20075;-62
2023/11/02 03:26:44;;;;;;;0.77;0.30;;;;;;;21.58;37.24;98027.25;4497218;28;20030;-63
2023/11/02 03:29:20;;;;;;;0.20;0.20;;;;;;;21.60;37.44;98013.28;4519719;28;20121;-63
2023/11/02 03:32:00;;;;;;;0.43;0.25;;;;;;;21.58;37.20;98010.03;4516381;28;20032;-63
2023/11/02 03:34:31;;;;;;;0.20;0.20;;;;;;;21.58;37.15;97992.03;4520027;28;20034;-63
2023/11/02 03:37:23;;;;;;;0.20;0.20;;;;;;;21.58;37.47;97995.69;4515973;28;20119;-63
2023/11/02 03:39:45;;;;;;;0.35;0.20;;;;;;;21.58;37.44;97992.81;4508378;28;20080;-63
2023/11/02 03:42:23;;;;;;;0.28;0.20;;;;;;;21.58;37.74;97992.03;4522078;28;20187;-63
2023/11/02 03:44:56;;;;;;;0.50;0.28;;;;;;;21.58;37.54;97986.28;4500034;28;20142;-63
2023/11/02 03:47:12;;;;;;;0.20;0.20;;;;;;;21.58;37.48;97972.72;4519193;28;20045;-63
2023/11/02 03:49:44;;;;;;;0.57;0.30;;;;;;;21.58;37.69;97969.06;4517445;28;20134;-63
2023/11/02 03:52:03;;;;;;;1.00;0.30;;;;;;;21.59;37.52;97965.75;4519280;28;20033;-63
2023/11/02 03:54:23;;;;;;;0.45;0.22;;;;;;;21.58;37.58;97969.06;4518550;28;20092;-63
2023/11/02 03:56:41;;;;;;;0.38;0.25;;;;;;;21.59;37.44;97976.41;4521086;28;20040;-63
2023/11/02 03:59:05;;;;;;;0.50;0.28;;;;;;;21.58;37.33;97972.72;4499854;28;20043;-63
2023/11/02 04:01:27;;;;;;;0.35;0.32;;;;;;;21.57;37.35;97971.09;4516405;28;20041;-63
2023/11/02 04:03:43;;;;;;;0.30;0.20;;;;;;;21.59;37.54;97957.13;4517542;28;20030;-63
2023/11/02 04:05:57;;;;;;;0.30;0.25;;;;;;;21.58;37.45;97935.41;4518387;28;20073;-63
2023/11/02 04:08:11;;;;;;;0.45;0.30;;;;;;;21.60;37.56;97926.34;4520878;28;20034;-63
2023/11/02 04:10:29;;;;;;;0.22;0.20;;;;;;;21.59;37.99;97925.56;4510338;28;20046;-63
2023/11/02 04:13:09;;;;;;;0.45;0.30;;;;;;;21.59;37.92;97919.81;4517887;28;20115;-63
2023/11/02 04:15:19;;;;;;;0.43;0.20;;;;;;;21.60;37.85;97909.13;4463918;28;20042;-63
2023/11/02 04:17:30;;;;;;;0.45;0.28;;;;;;;21.59;38.31;97891.13;4511176;28;20514;-63
2023/11/02 04:19:40;;;;;;;0.32;0.20;;;;;;;21.58;38.03;97895.22;4500339;28;20092;-63
2023/11/02 04:21:51;;;;;;;0.85;0.40;;;;;;;21.58;38.17;97878.00;4520453;28;20037;-63
2023/11/02 04:24:01;;;;;;;0.80;0.30;;;;;;;21.57;38.26;97870.66;4507058;28;20222;-63
2023/11/02 04:26:12;;;;;;;0.30;0.30;;;;;;;21.59;38.04;97870.19;4505398;28;20045;-63
2023/11/02 04:28:23;;;;;;;0.30;0.30;;;;;;;21.58;38.03;97855.03;4519783;28;20018;-63
2023/11/02 04:30:34;;;;;;;0.52;0.28;;;;;;;21.54;38.29;97860.06;4516968;28;20045;-63
2023/11/02 04:32:45;;;;;;;0.43;0.30;;;;;;;21.60;37.86;97868.94;4508334;28;20499;-63
2023/11/02 04:34:56;;;;;;;0.28;0.20;;;;;;;21.59;37.78;97861.59;4517743;28;20067;-63
2023/11/02 04:37:16;;;;;;;1.15;0.30;;;;;;;21.59;37.81;97862.41;4518498;28;20034;-63
2023/11/02 04:39:27;;;;;;;0.60;0.43;;;;;;;21.60;38.01;97846.81;4517299;28;20037;-63
2023/11/02 04:41:37;;;;;;;0.85;0.40;;;;;;;21.59;37.70;97848.06;4517853;28;20033;-63
2023/11/02 04:43:48;;;;;;;0.65;0.43;;;;;;;21.60;38.05;97858.28;4516384;28;23128;-63
2023/11/02 04:45:59;;;;;;;0.52;0.20;;;;;;;21.59;37.77;97839.44;4516582;28;20030;-63
2023/11/02 04:48:09;;;;;;;0.60;0.30;;;;;;;21.59;37.83;97839.44;4517616;28;20053;-63
2023/11/02 04:50:20;;;;;;;0.73;0.40;;;;;;;21.60;37.47;97811.53;4517094;28;20125;-63
2023/11/02 04:52:35;;;;;;;0.70;0.32;;;;;;;21.59;37.42;97805.00;4517918;28;20047;-63
2023/11/02 04:54:46;;;;;;;0.40;0.30;;;;;;;21.58;37.51;97814.84;4517069;28;20799;-63
2023/11/02 04:56:56;;;;;;;0.85;0.30;;;;;;;21.59;37.63;97810.75;4520771;28;20036;-63
2023/11/02 04:59:06;;;;;;;0.73;0.30;;;;;;;21.58;37.72;97803.38;4518553;28;20022;-63
2023/11/02 05:01:17;;;;;;;0.50;0.30;;;;;;;21.58;37.76;97811.97;4519406;28;20014;-63
2023/11/02 05:03:27;;;;;;;0.60;0.30;;;;;;;21.60;37.52;97808.66;4518026;28;20057;-63
2023/11/02 05:05:38;;;;;;;0.82;0.40;;;;;;;21.58;37.31;97786.16;4518739;28;20026;-63
2023/11/02 05:07:48;;;;;;;0.50;0.30;;;;;;;21.57;37.15;97778.81;4521120;28;20034;-63
2023/11/02 05:09:59;;;;;;;0.55;0.40;;;;;;;21.59;37.46;97761.97;4518446;28;20067;-63
2023/11/02 05:12:09;;;;;;;0.38;0.30;;;;;;;21.60;37.74;97766.44;4517500;28;20033;-63
2023/11/02 05:14:19;;;;;;;0.90;0.30;;;;;;;21.56;37.39;97742.75;4517218;28;20337;-63
2023/11/02 05:16:30;;;;;;;0.63;0.35;;;;;;;21.56;37.71;97748.50;4520827;28;20026;-63
2023/11/02 05:18:40;;;;;;;0.30;0.30;;;;;;;21.58;37.87;97740.22;4517809;28;20037;-63
2023/11/02 05:20:56;;;;;;;0.47;0.30;;;;;;;21.59;37.36;97718.91;4516865;28;22530;-63
2023/11/02 05:23:09;;;;;;;0.40;0.40;;;;;;;21.59;38.20;97701.69;4518574;28;20043;-63
2023/11/02 05:25:19;;;;;;;0.40;0.38;;;;;;;21.58;37.61;97697.19;4518203;28;20586;-63
2023/11/02 05:27:30;;;;;;;0.55;0.30;;;;;;;21.52;37.43;97672.31;4518795;28;20048;-63
2023/11/02 05:29:40;;;;;;;0.45;0.20;;;;;;;21.59;37.27;97672.97;4516677;28;20574;-63
2023/11/02 05:31:51;;;;;;;0.50;0.22;;;;;;;21.58;37.53;97671.34;4515554;28;20417;-63
2023/11/02 05:34:02;;;;;;;0.47;0.30;;;;;;;21.53;37.36;97645.25;4518029;28;20050;-63
2023/11/02 05:36:12;;;;;;;0.82;0.35;;;;;;;21.57;37.47;97638.16;4519881;28;20025;-63
2023/11/02 05:38:23;;;;;;;0.43;0.30;;;;;;;21.58;36.99;97642.63;4519184;28;20036;-63
2023/11/02 05:40:33;;;;;;;0.47;0.40;;;;;;;21.58;37.20;97613.94;4516556;28;20033;-63
2023/11/02 05:42:44;;;;;;;0.70;0.30;;;;;;;21.58;37.33;97604.53;4519006;28;20127;-63
2023/11/02 05:44:55;;;;;;;0.47;0.20;;;;;;;21.55;37.04;97586.13;4500398;28;20415;-63
2023/11/02 05:47:06;;;;;;;0.63;0.30;;;;;;;21.58;37.09;97570.88;4505273;28;20128;-63
2023/11/02 05:49:16;;;;;;;0.20;0.20;;;;;;;21.56;37.12;97553.34;4516157;28;20117;-63
2023/11/02 05:51:26;;;;;;;1.25;0.40;;;;;;;21.56;37.08;97536.13;4518197;28;20040;-63
2023/11/02 05:53:37;;;;;;;0.50;0.38;;;;;;;21.58;36.94;97515.56;4517872;28;20482;-63
2023/11/02 05:55:47;;;;;;;0.68;0.32;;;;;;;21.58;37.12;97487.66;4519580;28;20065;-63
2023/11/02 05:57:58;;;;;;;0.20;0.20;;;;;;;21.57;36.97;97468.84;4504013;28;20112;-64
2023/11/02 06:00:10;;;;;;;0.38;0.28;;;;;;;21.58;36.57;97435.22;4517348;28;20471;-63
2023/11/02 06:02:20;;;;;;;1.50;0.20;;;;;;;21.58;36.57;97389.28;4516926;28;20108;-63
2023/11/02 06:04:31;;;;;;;0.63;0.30;;;;;;;21.58;36.62;97372.84;4515668;28;20105;-63
2023/11/02 06:06:41;;;;;;;0.55;0.32;;;;;;;21.57;36.49;97368.38;4516423;28;20131;-63
2023/11/02 06:08:52;;;;;;;0.30;0.30;;;;;;;21.58;36.37;97384.34;4517041;28;20044;-63
2023/11/02 06:11:03;;;;;;;0.43;0.25;;;;;;;21.58;36.30;97412.25;4518291;28;20136;-63
2023/11/02 06:13:14;;;;;;;0.73;0.30;;;;;;;21.59;36.79;97414.66;4518277;28;20026;-63
2023/11/02 06:15:24;;;;;;;0.68;0.30;;;;;;;21.59;36.73;97408.13;4508502;28;20045;-63
2023/11/02 06:17:34;;;;;;;0.45;0.25;;;;;;;21.58;36.67;97404.44;4516984;28;20037;-63
2023/11/02 06:19:45;;;;;;;0.52;0.30;;;;;;;21.58;36.34;97427.38;4504833;28;20038;-63
2023/11/02 06:21:55;;;;;;;0.28;0.20;;;;;;;21.58;36.37;97424.53;4516016;28;20439;-63
2023/11/02 06:24:06;;;;;;;0.17;0.13;;;;;;;21.58;36.69;97407.31;4516177;28;20123;-63
2023/11/02 06:26:18;;;;;;;0.22;0.20;;;;;;;21.59;36.11;97397.44;4515972;28;20037;-63
2023/11/02 06:28:28;;;;;;;0.30;0.28;;;;;;;21.58;36.51;97390.09;4517701;28;20036;-63
2023/11/02 06:30:39;;;;;;;0.38;0.20;;;;;;;21.59;36.36;97408.94;4517484;28;20036;-63
2023/11/02 06:32:49;;;;;;;0.43;0.20;;;;;;;21.59;36.18;97400.31;4517360;28;20490;-63
2023/11/02 06:34:59;;;;;;;0.40;0.22;;;;;;;21.60;36.17;97398.25;4505092;28;20022;-63
2023/11/02 06:37:13;;;;;;;0.50;0.30;;;;;;;21.59;36.13;97403.19;4508888;28;20075;-63
2023/11/02 06:39:23;;;;;;;0.80;0.30;;;;;;;21.60;35.96;97378.97;4517610;28;20412;-63
2023/11/02 06:41:34;;;;;;;0.50;0.20;;;;;;;21.61;35.86;97371.16;4518240;28;20155;-63
2023/11/02 06:43:44;;;;;;;0.77;0.30;;;;;;;21.59;35.98;97345.78;4515519;28;20434;-63
2023/11/02 06:45:55;;;;;;;1.05;0.30;;;;;;;21.57;36.45;97336.81;4515097;28;20376;-63
2023/11/02 06:48:05;;;;;;;0.10;0.10;;;;;;;21.59;36.24;97311.34;4516816;28;20033;-63
2023/11/02 06:50:16;;;;;;;0.70;0.20;;;;;;;21.58;36.20;97303.97;4483478;28;20050;-63
2023/11/02 06:52:27;;;;;;;0.90;0.30;;;;;;;21.57;36.41;97270.81;4514731;28;20034;-63
2023/11/02 06:54:41;;;;;;;0.20;0.20;;;;;;;21.58;35.82;97208.50;4517333;28;20049;-63
2023/11/02 06:56:52;;;;;;;0.30;0.25;;;;;;;21.58;35.96;97123.19;4514826;28;20620;-63
2023/11/02 06:59:02;;;;;;;0.30;0.30;;;;;;;21.55;35.95;97086.78;4515222;28;20083;-63
2023/11/02 07:01:12;;;;;;;0.30;0.20;;;;;;;21.59;36.24;97084.63;4515353;28;20025;-63
2023/11/02 07:03:23;;;;;;;1.05;0.40;;;;;;;21.60;36.09;97180.13;4516182;28;20150;-63
2023/11/02 07:05:34;;;;;;;0.65;0.20;;;;;;;21.61;35.81;97239.16;4518194;28;20021;-63
2023/11/02 07:07:49;;;;;;;0.75;0.20;;;;;;;21.61;35.89;97208.38;4517259;28;20044;-63
2023/11/02 07:09:59;;;;;;;0.82;0.20;;;;;;;21.63;35.97;97210.78;4516553;28;20030;-63
2023/11/02 07:12:14;;;;;;;0.47;0.20;;;;;;;21.62;35.81;97195.66;4518320;28;20033;-63
2023/11/02 07:14:25;;;;;;;0.60;0.30;;;;;;;21.60;35.77;97203.09;4518357;28;20033;-62
2023/11/02 07:16:35;;;;;;;1.90;1.30;;;;;;;21.62;35.78;97220.66;4500260;28;20903;-63
2023/11/02 07:18:45;;;;;;;0.30;0.30;;;;;;;21.60;36.10;97234.66;4521524;28;20422;-62
2023/11/02 07:20:56;;;;;;;0.75;0.60;;;;;;;21.62;36.02;97315.38;4521404;28;20128;-62
2023/11/02 07:23:06;;;;;;;1.00;0.40;;;;;;;21.60;35.95;97330.16;4517955;28;20107;-62
2023/11/02 07:25:17;;;;;;;0.10;0.10;;;;;;;21.58;36.14;97318.34;4519096;28;20041;-63
2023/11/02 07:27:30;;;;;;;0.45;0.30;;;;;;;21.62;36.29;97332.59;4520494;28;20398;-63
2023/11/02 07:29:41;;;;;;;0.28;0.22;;;;;;;21.61;36.29;97326.03;4520911;28;20029;-62
2023/11/02 07:31:52;;;;;;;0.77;0.55;;;;;;;21.60;36.11;97324.44;4519781;28;20030;-62
2023/11/02 07:34:02;;;;;;;0.40;0.40;;;;;;;21.61;35.88;97353.94;4518324;28;20044;-62
2023/11/02 07:36:14;;;;;;;0.32;0.20;;;;;;;21.62;36.48;97346.94;4500695;28;20085;-63
2023/11/02 07:38:24;;;;;;;0.25;0.20;;;;;;;21.61;36.36;97382.66;4519802;28;20033;-63
2023/11/02 07:40:34;;;;;;;0.40;0.20;;;;;;;21.60;36.51;97363.78;4516849;28;20029;-62
2023/11/02 07:42:45;;;;;;;0.65;0.20;;;;;;;21.61;36.66;97346.13;4518061;28;20129;-62
2023/11/02 07:44:55;;;;;;;0.30;0.10;;;;;;;21.60;36.37;97321.56;4516603;28;20036;-62
2023/11/02 07:47:06;;;;;;;0.45;0.17;;;;;;;21.60;36.33;97312.94;4517546;28;20037;-62
2023/11/02 07:49:16;;;;;;;0.28;0.17;;;;;;;21.60;36.02;97277.69;4519774;28;20024;-62
2023/11/02 07:51:27;;;;;;;0.25;0.20;;;;;;;21.60;36.86;97275.66;4505658;28;20030;-62
2023/11/02 07:53:37;;;;;;;0.10;0.10;;;;;;;21.60;36.73;97278.50;4518559;28;20898;-62
2023/11/02 07:55:48;;;;;;;0.10;0.10;;;;;;;21.61;36.95;97264.97;4518272;28;20546;-62
2023/11/02 07:57:59;;;;;;;0.32;0.20;;;;;;;21.57;36.55;97285.16;4520897;28;20037;-63
2023/11/02 08:00:10;;;;;;;0.25;0.10;;;;;;;21.60;36.90;97295.72;4517609;28;20081;-62
2023/11/02 08:02:23;;;;;;;0.20;0.10;;;;;;;21.62;36.93;97303.88;4519033;28;20766;-63
2023/11/02 08:04:34;;;;;;;0.20;0.17;;;;;;;21.58;36.90;97314.69;4505103;28;20069;-62
2023/11/02 08:06:44;;;;;;;0.35;0.30;;;;;;;21.62;37.01;97330.53;4517417;28;20890;-62
2023/11/02 08:08:55;;;;;;;0.40;0.20;;;;;;;21.61;37.15;97320.28;4498695;28;20030;-63
2023/11/02 08:11:05;;;;;;;0.10;0.10;;;;;;;21.62;37.38;97321.09;4517235;28;20038;-63
2023/11/02 08:13:16;;;;;;;0.10;0.10;;;;;;;21.62;37.28;97326.84;4516654;28;20034;-63
2023/11/02 08:15:27;;;;;;;0.20;0.20;;;;;;;21.62;37.10;97339.16;4518501;28;20037;-63
2023/11/02 08:17:39;;;;;;;0.30;0.10;;;;;;;21.62;37.20;97362.09;4518957;28;20030;-63
2023/11/02 08:19:50;;;;;;;0.10;0.10;;;;;;;21.62;37.49;97356.38;4520659;28;20672;-63
2023/11/02 08:22:00;;;;;;;0.00;0.00;;;;;;;21.63;37.38;97360.84;4516539;28;20054;-63
2023/11/02 08:24:11;;;;;;;0.10;0.10;;;;;;;21.63;37.52;97357.16;4518670;28;20473;-63
2023/11/02 08:26:23;;;;;;;0.25;0.20;;;;;;;21.58;37.59;97326.94;4520232;28;20124;-63
2023/11/02 08:28:33;;;;;;;0.10;0.10;;;;;;;21.64;37.91;97325.16;4506251;28;20100;-62
2023/11/02 08:30:44;;;;;;;0.65;0.10;;;;;;;21.64;37.99;97328.03;4518816;28;20144;-63
2023/11/02 08:32:55;;;;;;;0.13;0.13;;;;;;;21.63;37.71;97326.41;4517627;28;20025;-63
2023/11/02 08:35:06;;;;;;;0.10;0.10;;;;;;;21.62;37.96;97326.84;4499696;28;20049;-63
2023/11/02 08:37:17;;;;;;;0.10;0.10;;;;;;;21.64;37.99;97333.78;4501086;28;20049;-62
2023/11/02 08:39:28;;;;;;;0.10;0.10;;;;;;;21.63;38.22;97332.13;4518613;28;20026;-63
2023/11/02 08:41:38;;;;;;;0.10;0.10;;;;;;;21.64;37.91;97330.91;4519604;28;20069;-63
2023/11/02 08:43:50;;;;;;;0.20;0.17;;;;;;;21.64;38.13;97342.38;4517992;28;20041;-62
2023/11/02 08:46:01;;;;;;;0.55;0.10;;;;;;;21.64;38.73;97330.91;4517688;28;20029;-62
2023/11/02 08:48:11;;;;;;;0.10;0.10;;;;;;;21.64;38.31;97321.47;4518556;28;20065;-62
2023/11/02 08:50:22;;;;;;;0.10;0.00;;;;;;;21.64;38.44;97322.28;4518835;28;20034;-62
2023/11/02 08:52:32;;;;;;;0.43;0.20;;;;;;;21.63;38.75;97300.56;4520449;28;20132;-62
2023/11/02 08:54:43;;;;;;;0.10;0.10;;;;;;;21.63;38.97;97312.03;4519228;28;20545;-62
2023/11/02 08:56:53;;;;;;;0.10;0.10;;;;;;;21.66;38.77;97321.84;4517382;28;20038;-62
2023/11/02 08:59:03;;;;;;;0.30;0.13;;;;;;;21.66;38.97;97331.22;4518588;28;20041;-62
2023/11/02 09:01:19;;;;;;;0.22;0.20;;;;;;;21.65;39.25;97315.28;4518527;28;20069;-62
2023/11/02 09:03:30;;;;;;;0.35;0.20;;;;;;;21.68;39.13;97320.09;4509750;28;20050;-62
2023/11/02 09:05:40;;;;;;;0.10;0.10;;;;;;;21.68;39.34;97294.28;4517037;28;20037;-62
2023/11/02 09:07:51;;;;;;;0.17;0.17;;;;;;;21.65;39.07;97300.09;4518219;28;20041;-62
2023/11/02 09:10:03;;;;;;;0.10;0.10;;;;;;;21.69;39.06;97287.25;4518119;28;20089;-62
2023/11/02 09:12:13;;;;;;;0.10;0.10;;;;;;;21.70;39.04;97293.81;4516915;28;20541;-62
2023/11/02 09:14:24;;;;;;;0.10;0.10;;;;;;;21.71;39.31;97289.69;4518488;28;20026;-62
2023/11/02 09:16:34;;;;;;;0.05;0.05;;;;;;;21.70;39.29;97283.16;4516298;28;20884;-62
2023/11/02 09:18:45;;;;;;;0.28;0.20;;;;;;;21.71;39.10;97261.78;4516500;28;20039;-62
2023/11/02 09:20:55;;;;;;;0.20;0.10;;;;;;;21.70;39.16;97277.41;4517117;28;20070;-62
2023/11/02 09:23:05;;;;;;;0.20;0.03;;;;;;;21.68;39.49;97248.34;4514555;28;20093;-62
2023/11/02 09:25:16;;;;;;;0.10;0.10;;;;;;;21.71;39.60;97243.75;4515348;28;20025;-62
2023/11/02 09:27:26;;;;;;;0.00;0.00;;;;;;;21.70;39.10;97234.34;4514419;28;20030;-62
2023/11/02 09:29:37;;;;;;;0.10;0.10;;;;;;;21.67;39.38;97237.31;4516372;28;20036;-62
2023/11/02 09:31:47;;;;;;;0.10;0.10;;;;;;;21.70;38.97;97225.75;4519156;28;20037;-62
2023/11/02 09:34:00;;;;;;;0.10;0.10;;;;;;;21.71;39.16;97233.09;4508052;28;20022;-64
2023/11/02 09:36:11;;;;;;;0.30;0.00;;;;;;;21.74;39.13;97240.78;4517806;28;20041;-63
2023/11/02 09:38:21;;;;;;;0.77;0.13;;;;;;;21.74;38.79;97229.28;4498336;28;20042;-62
2023/11/02 09:40:33;;;;;;;0.10;0.10;;;;;;;21.75;39.34;97245.31;4498285;28;20049;-62
2023/11/02 09:42:46;;;;;;;0.10;0.08;;;;;;;21.76;38.82;97246.91;4517903;28;20868;-63
2023/11/02 09:44:56;;;;;;;0.13;0.10;;;;;;;21.77;39.09;97248.50;4516782;28;20041;-63
2023/11/02 09:47:07;;;;;;;0.10;0.10;;;;;;;21.79;39.07;97250.91;4515092;28;20785;-63
2023/11/02 09:49:17;;;;;;;0.10;0.10;;;;;;;21.80;39.18;97256.22;4520550;28;20057;-64
2023/11/02 09:51:28;;;;;;;0.38;0.00;;;;;;;21.79;38.97;97237.38;4519237;28;20025;-64
2023/11/02 09:53:39;;;;;;;0.00;0.00;;;;;;;21.81;39.11;97243.47;4503552;28;20079;-64
2023/11/02 09:55:58;;;;;;;0.00;0.00;;;;;;;21.80;39.00;97233.25;4520317;28;20030;-64
2023/11/02 09:58:10;;;;;;;0.05;0.05;;;;;;;21.82;38.94;97232.78;4515986;28;20056;-61
2023/11/02 10:00:20;;;;;;;0.00;0.00;;;;;;;21.79;39.44;97225.09;4521423;28;20041;-61
2023/11/02 10:02:31;;;;;;;0.00;0.00;;;;;;;21.82;39.14;97227.84;4519646;28;20038;-61
2023/11/02 10:04:42;;;;;;;0.32;0.10;;;;;;;21.82;38.81;97233.59;4516983;28;20029;-61
2023/11/02 10:06:52;;;;;;;0.10;0.00;;;;;;;21.83;38.80;97234.41;4483285;28;1076115;-61
2023/11/02 10:09:04;;;;;;;0.08;0.08;;;;;;;21.82;38.93;97222.13;4520915;28;20042;-62
2023/11/02 10:11:16;;;;;;;0.00;0.00;;;;;;;21.82;39.25;97216.38;4516515;28;20037;-62
2023/11/02 10:13:27;;;;;;;0.00;0.00;;;;;;;21.79;38.90;97211.53;4520815;28;20777;-62
2023/11/02 10:15:37;;;;;;;0.10;0.10;;;;;;;21.83;38.75;97235.22;4506358;28;20048;-62
2023/11/02 10:17:49;;;;;;;0.00;0.00;;;;;;;21.78;39.24;97218.56;4519258;28;20026;-62
2023/11/02 10:20:00;;;;;;;0.35;0.10;;;;;;;21.83;39.04;97206.53;4508083;28;20038;-62
2023/11/02 10:22:10;;;;;;;0.00;0.00;;;;;;;21.83;38.73;97218.00;4520419;28;20466;-61
2023/11/02 10:24:36;;;;;;;0.10;0.10;;;;;;;21.84;38.72;97208.13;4520091;28;20137;-63
2023/11/02 10:26:47;;;;;;;0.00;0.00;;;;;;;21.83;39.26;97195.03;4520825;28;20167;-62
2023/11/02 10:29:04;;;;;;;0.10;0.10;;;;;;;21.84;39.09;97184.34;4521195;28;20084;-62
2023/11/02 10:31:20;;;;;;;0.05;0.05;;;;;;;21.83;39.32;97183.56;4519053;28;21300;-62